Fairlawn, Ohio
Current Conditions -  °F | °C
As of 12:49 AM on Tuesday 27 Jan 2015 (Local Time) from KAKR Reporting Station
Light Snow Light Snow  
Wind Chill: 10°   Ceiling: 1200
Heat Index: 19°   Visibility: 2.5mi
Dew Point: 16°   Wind: 7mph
Humidity: 86%   Direction: 320°NW
Pressure: 29.87"   Gusts: NA
Location:  41.0812°N, 81.5191°W
Report Text: KAKR 270549Z AUTO 32006KT 2 1/2SM -SN BKN012 OVC018 M07/M09 A2987 RMK AO2 P0000 $
Loading
Personal Weather Stations






























Interactive Weather Map New forecast layout! Learn more

10-Day Weather Forecast

Advertisements
Track Severe Weather on mobile